sensor_id;sensor_type;location;lat;lon;timestamp;temperature;humidity
37646;DHT22;23489;49.600;6.138;2024-03-25T00:00:40;5.30;99.90
37646;DHT22;23489;49.600;6.138;2024-03-25T00:03:06;5.30;99.90
37646;DHT22;23489;49.600;6.138;2024-03-25T00:05:32;5.20;99.90
37646;DHT22;23489;49.600;6.138;2024-03-25T00:07:58;5.20;99.90
37646;DHT22;23489;49.600;6.138;2024-03-25T00:10:24;5.10;99.90
37646;DHT22;23489;49.600;6.138;2024-03-25T00:12:50;5.10;99.90
37646;DHT22;23489;49.600;6.138;2024-03-25T00:15:20;5.10;99.90
37646;DHT22;23489;49.600;6.138;2024-03-25T00:17:47;5.10;99.90
37646;DHT22;23489;49.600;6.138;2024-03-25T00:20:13;5.10;99.90
37646;DHT22;23489;49.600;6.138;2024-03-25T00:22:41;5.10;99.90
37646;DHT22;23489;49.600;6.138;2024-03-25T00:25:07;5.00;99.90
37646;DHT22;23489;49.600;6.138;2024-03-25T00:27:33;5.00;99.90
37646;DHT22;23489;49.600;6.138;2024-03-25T00:29:59;5.00;99.90
37646;DHT22;23489;49.600;6.138;2024-03-25T00:32:25;5.00;99.90
37646;DHT22;23489;49.600;6.138;2024-03-25T00:34:50;5.10;99.90
37646;DHT22;23489;49.600;6.138;2024-03-25T00:37:16;5.10;99.90
37646;DHT22;23489;49.600;6.138;2024-03-25T00:39:42;5.10;99.90
37646;DHT22;23489;49.600;6.138;2024-03-25T00:42:07;5.00;99.90
37646;DHT22;23489;49.600;6.138;2024-03-25T00:44:33;5.00;99.90
37646;DHT22;23489;49.600;6.138;2024-03-25T00:46:59;5.00;99.90
37646;DHT22;23489;49.600;6.138;2024-03-25T00:49:25;5.00;99.90
37646;DHT22;23489;49.600;6.138;2024-03-25T00:51:51;4.90;99.90
37646;DHT22;23489;49.600;6.138;2024-03-25T00:54:17;4.90;99.90
37646;DHT22;23489;49.600;6.138;2024-03-25T00:56:43;4.90;99.90
37646;DHT22;23489;49.600;6.138;2024-03-25T00:59:09;4.90;99.90
37646;DHT22;23489;49.600;6.138;2024-03-25T01:01:35;4.80;99.90
37646;DHT22;23489;49.600;6.138;2024-03-25T01:04:04;4.90;99.90
37646;DHT22;23489;49.600;6.138;2024-03-25T01:06:30;4.90;99.90
37646;DHT22;23489;49.600;6.138;2024-03-25T01:08:56;4.90;99.90
37646;DHT22;23489;49.600;6.138;2024-03-25T01:11:21;4.80;99.90
37646;DHT22;23489;49.600;6.138;2024-03-25T01:13:48;4.80;99.90
37646;DHT22;23489;49.600;6.138;2024-03-25T01:16:14;4.70;99.90
37646;DHT22;23489;49.600;6.138;2024-03-25T01:18:40;4.70;99.90
37646;DHT22;23489;49.600;6.138;2024-03-25T01:21:06;4.60;99.90
37646;DHT22;23489;49.600;6.138;2024-03-25T01:23:32;4.50;99.90
37646;DHT22;23489;49.600;6.138;2024-03-25T01:25:57;4.50;99.90
37646;DHT22;23489;49.600;6.138;2024-03-25T01:28:23;4.50;99.90
37646;DHT22;23489;49.600;6.138;2024-03-25T01:30:50;4.40;99.90
37646;DHT22;23489;49.600;6.138;2024-03-25T01:33:15;4.40;99.90
37646;DHT22;23489;49.600;6.138;2024-03-25T01:35:41;4.30;99.90
37646;DHT22;23489;49.600;6.138;2024-03-25T01:38:07;4.20;99.90
37646;DHT22;23489;49.600;6.138;2024-03-25T01:40:34;4.20;99.90
37646;DHT22;23489;49.600;6.138;2024-03-25T01:43:01;4.20;99.90
37646;DHT22;23489;49.600;6.138;2024-03-25T01:45:30;4.20;99.90
37646;DHT22;23489;49.600;6.138;2024-03-25T01:47:57;4.20;99.90
37646;DHT22;23489;49.600;6.138;2024-03-25T01:50:24;4.20;99.90
37646;DHT22;23489;49.600;6.138;2024-03-25T01:52:51;4.20;99.90
37646;DHT22;23489;49.600;6.138;2024-03-25T01:55:20;4.10;99.90
37646;DHT22;23489;49.600;6.138;2024-03-25T01:57:47;4.10;99.90
37646;DHT22;23489;49.600;6.138;2024-03-25T02:00:14;4.00;99.90
37646;DHT22;23489;49.600;6.138;2024-03-25T02:02:45;4.00;99.90
37646;DHT22;23489;49.600;6.138;2024-03-25T02:05:16;3.90;99.90
37646;DHT22;23489;49.600;6.138;2024-03-25T02:07:43;3.90;99.90
37646;DHT22;23489;49.600;6.138;2024-03-25T02:10:09;3.80;99.90
37646;DHT22;23489;49.600;6.138;2024-03-25T02:12:39;3.80;99.90
37646;DHT22;23489;49.600;6.138;2024-03-25T02:15:06;3.80;99.90
37646;DHT22;23489;49.600;6.138;2024-03-25T02:17:31;3.70;99.90
37646;DHT22;23489;49.600;6.138;2024-03-25T02:19:57;3.70;99.90
37646;DHT22;23489;49.600;6.138;2024-03-25T02:22:23;3.60;99.90
37646;DHT22;23489;49.600;6.138;2024-03-25T02:24:51;3.60;99.90
37646;DHT22;23489;49.600;6.138;2024-03-25T02:27:18;3.60;99.90
37646;DHT22;23489;49.600;6.138;2024-03-25T02:29:44;3.50;99.90
37646;DHT22;23489;49.600;6.138;2024-03-25T02:32:10;3.50;99.90
37646;DHT22;23489;49.600;6.138;2024-03-25T02:34:50;3.50;99.90
37646;DHT22;23489;49.600;6.138;2024-03-25T02:37:16;3.60;99.90
37646;DHT22;23489;49.600;6.138;2024-03-25T02:39:42;3.60;99.90
37646;DHT22;23489;49.600;6.138;2024-03-25T02:42:09;3.60;99.90
37646;DHT22;23489;49.600;6.138;2024-03-25T02:44:35;3.50;99.90
37646;DHT22;23489;49.600;6.138;2024-03-25T02:47:02;3.50;99.90
37646;DHT22;23489;49.600;6.138;2024-03-25T02:49:28;3.50;99.90
37646;DHT22;23489;49.600;6.138;2024-03-25T02:51:53;3.50;99.90
37646;DHT22;23489;49.600;6.138;2024-03-25T02:54:19;3.50;99.90
37646;DHT22;23489;49.600;6.138;2024-03-25T02:56:45;3.50;99.90
37646;DHT22;23489;49.600;6.138;2024-03-25T02:59:10;3.40;99.90
37646;DHT22;23489;49.600;6.138;2024-03-25T03:01:36;3.40;99.90
37646;DHT22;23489;49.600;6.138;2024-03-25T03:04:02;3.40;99.90
37646;DHT22;23489;49.600;6.138;2024-03-25T03:06:27;3.40;99.90
37646;DHT22;23489;49.600;6.138;2024-03-25T03:08:53;3.40;99.90
37646;DHT22;23489;49.600;6.138;2024-03-25T03:11:19;3.30;99.90
37646;DHT22;23489;49.600;6.138;2024-03-25T03:13:45;3.30;99.90
37646;DHT22;23489;49.600;6.138;2024-03-25T03:16:12;3.30;99.90
37646;DHT22;23489;49.600;6.138;2024-03-25T03:18:38;3.20;99.90
37646;DHT22;23489;49.600;6.138;2024-03-25T03:21:03;3.20;99.90
37646;DHT22;23489;49.600;6.138;2024-03-25T03:23:29;3.20;99.90
37646;DHT22;23489;49.600;6.138;2024-03-25T03:25:56;3.20;99.90
37646;DHT22;23489;49.600;6.138;2024-03-25T03:28:25;3.10;99.90
37646;DHT22;23489;49.600;6.138;2024-03-25T03:30:51;3.00;99.90
37646;DHT22;23489;49.600;6.138;2024-03-25T03:33:16;2.90;99.90
37646;DHT22;23489;49.600;6.138;2024-03-25T03:35:43;2.90;99.90
37646;DHT22;23489;49.600;6.138;2024-03-25T03:38:08;2.80;99.90
37646;DHT22;23489;49.600;6.138;2024-03-25T03:40:34;2.80;99.90
37646;DHT22;23489;49.600;6.138;2024-03-25T03:43:00;2.70;99.90
37646;DHT22;23489;49.600;6.138;2024-03-25T03:45:25;2.70;99.90
37646;DHT22;23489;49.600;6.138;2024-03-25T03:47:51;2.60;99.90
37646;DHT22;23489;49.600;6.138;2024-03-25T03:50:17;2.60;99.90
37646;DHT22;23489;49.600;6.138;2024-03-25T03:52:42;2.50;99.90
37646;DHT22;23489;49.600;6.138;2024-03-25T03:55:08;2.40;99.90
37646;DHT22;23489;49.600;6.138;2024-03-25T03:57:34;2.30;99.90
37646;DHT22;23489;49.600;6.138;2024-03-25T04:00:00;2.30;99.90
37646;DHT22;23489;49.600;6.138;2024-03-25T04:02:28;2.20;99.90
37646;DHT22;23489;49.600;6.138;2024-03-25T04:04:54;2.10;99.90
37646;DHT22;23489;49.600;6.138;2024-03-25T04:07:19;2.10;99.90
37646;DHT22;23489;49.600;6.138;2024-03-25T04:09:45;2.10;99.90
37646;DHT22;23489;49.600;6.138;2024-03-25T04:12:10;2.00;99.90
37646;DHT22;23489;49.600;6.138;2024-03-25T04:14:36;2.00;99.90
37646;DHT22;23489;49.600;6.138;2024-03-25T04:17:02;2.10;99.90
37646;DHT22;23489;49.600;6.138;2024-03-25T04:19:28;2.00;99.90
37646;DHT22;23489;49.600;6.138;2024-03-25T04:21:54;2.10;99.90
37646;DHT22;23489;49.600;6.138;2024-03-25T04:24:20;2.10;99.90
37646;DHT22;23489;49.600;6.138;2024-03-25T04:26:45;2.10;99.90
37646;DHT22;23489;49.600;6.138;2024-03-25T04:29:11;2.10;99.90
37646;DHT22;23489;49.600;6.138;2024-03-25T04:31:36;2.00;99.90
37646;DHT22;23489;49.600;6.138;2024-03-25T04:34:03;2.00;99.90
37646;DHT22;23489;49.600;6.138;2024-03-25T04:36:30;2.00;99.90
37646;DHT22;23489;49.600;6.138;2024-03-25T04:38:55;2.00;99.90
37646;DHT22;23489;49.600;6.138;2024-03-25T04:41:21;2.00;99.90
37646;DHT22;23489;49.600;6.138;2024-03-25T04:43:47;1.90;99.90
37646;DHT22;23489;49.600;6.138;2024-03-25T04:46:12;1.90;99.90
37646;DHT22;23489;49.600;6.138;2024-03-25T04:48:38;1.80;99.90
37646;DHT22;23489;49.600;6.138;2024-03-25T04:51:04;1.80;99.90
37646;DHT22;23489;49.600;6.138;2024-03-25T04:53:29;1.80;99.90
37646;DHT22;23489;49.600;6.138;2024-03-25T04:55:55;1.80;99.90
37646;DHT22;23489;49.600;6.138;2024-03-25T04:58:20;1.70;99.90
37646;DHT22;23489;49.600;6.138;2024-03-25T05:00:46;1.70;99.90
37646;DHT22;23489;49.600;6.138;2024-03-25T05:03:12;1.70;99.90
37646;DHT22;23489;49.600;6.138;2024-03-25T05:05:37;1.70;99.90
37646;DHT22;23489;49.600;6.138;2024-03-25T05:08:03;1.70;99.90
37646;DHT22;23489;49.600;6.138;2024-03-25T05:10:29;1.60;99.90
37646;DHT22;23489;49.600;6.138;2024-03-25T05:12:54;1.60;99.90
37646;DHT22;23489;49.600;6.138;2024-03-25T05:15:21;1.60;99.90
37646;DHT22;23489;49.600;6.138;2024-03-25T05:17:46;1.60;99.90
37646;DHT22;23489;49.600;6.138;2024-03-25T05:20:12;1.60;99.90
37646;DHT22;23489;49.600;6.138;2024-03-25T05:22:38;1.60;99.90
37646;DHT22;23489;49.600;6.138;2024-03-25T05:25:03;1.60;99.90
37646;DHT22;23489;49.600;6.138;2024-03-25T05:27:29;1.70;99.90
37646;DHT22;23489;49.600;6.138;2024-03-25T05:29:55;1.70;99.90
37646;DHT22;23489;49.600;6.138;2024-03-25T05:32:21;1.70;99.90
37646;DHT22;23489;49.600;6.138;2024-03-25T05:34:47;1.70;99.90
37646;DHT22;23489;49.600;6.138;2024-03-25T05:37:13;1.70;99.90
37646;DHT22;23489;49.600;6.138;2024-03-25T05:39:39;1.70;99.90
37646;DHT22;23489;49.600;6.138;2024-03-25T05:42:05;1.70;99.90
37646;DHT22;23489;49.600;6.138;2024-03-25T05:44:31;1.70;99.90
37646;DHT22;23489;49.600;6.138;2024-03-25T05:50:44;1.70;99.90
37646;DHT22;23489;49.600;6.138;2024-03-25T05:53:10;1.70;99.90
37646;DHT22;23489;49.600;6.138;2024-03-25T05:55:36;1.70;99.90
37646;DHT22;23489;49.600;6.138;2024-03-25T05:58:02;1.80;99.90
37646;DHT22;23489;49.600;6.138;2024-03-25T06:00:29;1.80;99.90
37646;DHT22;23489;49.600;6.138;2024-03-25T06:02:56;1.80;99.90
37646;DHT22;23489;49.600;6.138;2024-03-25T06:05:22;1.90;99.90
37646;DHT22;23489;49.600;6.138;2024-03-25T06:07:48;1.90;99.90
37646;DHT22;23489;49.600;6.138;2024-03-25T06:10:13;2.00;99.90
37646;DHT22;23489;49.600;6.138;2024-03-25T06:12:39;2.00;99.90
37646;DHT22;23489;49.600;6.138;2024-03-25T06:15:06;2.00;99.90
37646;DHT22;23489;49.600;6.138;2024-03-25T06:17:32;2.10;99.90
37646;DHT22;23489;49.600;6.138;2024-03-25T06:19:58;2.20;99.90
37646;DHT22;23489;49.600;6.138;2024-03-25T06:22:24;2.30;99.90
37646;DHT22;23489;49.600;6.138;2024-03-25T06:24:49;2.40;99.90
37646;DHT22;23489;49.600;6.138;2024-03-25T06:27:18;2.60;99.90
37646;DHT22;23489;49.600;6.138;2024-03-25T06:29:45;2.70;99.90
37646;DHT22;23489;49.600;6.138;2024-03-25T06:32:12;2.80;99.90
37646;DHT22;23489;49.600;6.138;2024-03-25T06:34:56;3.00;99.90
37646;DHT22;23489;49.600;6.138;2024-03-25T06:37:25;3.30;99.90
37646;DHT22;23489;49.600;6.138;2024-03-25T06:39:51;3.50;99.90
37646;DHT22;23489;49.600;6.138;2024-03-25T06:42:16;3.60;99.90
37646;DHT22;23489;49.600;6.138;2024-03-25T06:44:42;3.80;99.90
37646;DHT22;23489;49.600;6.138;2024-03-25T06:47:08;3.90;99.90
37646;DHT22;23489;49.600;6.138;2024-03-25T06:49:34;4.10;99.90
37646;DHT22;23489;49.600;6.138;2024-03-25T06:51:59;4.30;99.90
37646;DHT22;23489;49.600;6.138;2024-03-25T06:54:25;4.40;99.90
37646;DHT22;23489;49.600;6.138;2024-03-25T06:56:51;4.50;99.90
37646;DHT22;23489;49.600;6.138;2024-03-25T06:59:16;4.60;99.90
37646;DHT22;23489;49.600;6.138;2024-03-25T07:01:42;4.70;99.90
37646;DHT22;23489;49.600;6.138;2024-03-25T07:04:08;4.90;99.90
37646;DHT22;23489;49.600;6.138;2024-03-25T07:06:34;5.00;99.90
37646;DHT22;23489;49.600;6.138;2024-03-25T07:08:59;5.10;99.90
37646;DHT22;23489;49.600;6.138;2024-03-25T07:11:25;5.40;99.90
37646;DHT22;23489;49.600;6.138;2024-03-25T07:13:50;5.50;99.90
37646;DHT22;23489;49.600;6.138;2024-03-25T07:16:16;5.90;99.90
37646;DHT22;23489;49.600;6.138;2024-03-25T07:18:43;6.30;99.90
37646;DHT22;23489;49.600;6.138;2024-03-25T07:21:09;6.40;99.90
37646;DHT22;23489;49.600;6.138;2024-03-25T07:23:34;6.50;99.90
37646;DHT22;23489;49.600;6.138;2024-03-25T07:26:00;7.10;99.90
37646;DHT22;23489;49.600;6.138;2024-03-25T07:28:26;7.70;99.90
37646;DHT22;23489;49.600;6.138;2024-03-25T07:30:51;8.50;99.90
37646;DHT22;23489;49.600;6.138;2024-03-25T07:33:18;9.40;99.90
37646;DHT22;23489;49.600;6.138;2024-03-25T07:35:45;10.70;99.90
37646;DHT22;23489;49.600;6.138;2024-03-25T07:38:10;11.20;99.90
37646;DHT22;23489;49.600;6.138;2024-03-25T07:40:36;11.40;99.90
37646;DHT22;23489;49.600;6.138;2024-03-25T07:43:02;11.50;99.90
37646;DHT22;23489;49.600;6.138;2024-03-25T07:45:27;11.30;99.90
37646;DHT22;23489;49.600;6.138;2024-03-25T07:47:53;11.30;99.90
37646;DHT22;23489;49.600;6.138;2024-03-25T07:50:20;11.80;99.90
37646;DHT22;23489;49.600;6.138;2024-03-25T07:52:46;12.00;99.90
37646;DHT22;23489;49.600;6.138;2024-03-25T07:55:12;12.10;99.90
37646;DHT22;23489;49.600;6.138;2024-03-25T07:57:38;12.00;99.90
37646;DHT22;23489;49.600;6.138;2024-03-25T08:00:04;11.70;99.90
37646;DHT22;23489;49.600;6.138;2024-03-25T08:02:40;12.20;99.90
37646;DHT22;23489;49.600;6.138;2024-03-25T08:05:06;13.00;99.90
37646;DHT22;23489;49.600;6.138;2024-03-25T08:07:31;12.90;99.90
37646;DHT22;23489;49.600;6.138;2024-03-25T08:09:57;12.50;99.90
37646;DHT22;23489;49.600;6.138;2024-03-25T08:12:23;12.40;99.90
37646;DHT22;23489;49.600;6.138;2024-03-25T08:14:48;12.00;99.90
37646;DHT22;23489;49.600;6.138;2024-03-25T08:17:14;11.20;99.90
37646;DHT22;23489;49.600;6.138;2024-03-25T08:19:39;11.00;99.90
37646;DHT22;23489;49.600;6.138;2024-03-25T08:22:05;11.10;99.90
37646;DHT22;23489;49.600;6.138;2024-03-25T08:24:30;11.50;99.90
37646;DHT22;23489;49.600;6.138;2024-03-25T08:26:56;12.20;99.90
37646;DHT22;23489;49.600;6.138;2024-03-25T08:29:22;12.70;99.90
37646;DHT22;23489;49.600;6.138;2024-03-25T08:31:47;13.70;99.90
37646;DHT22;23489;49.600;6.138;2024-03-25T08:34:13;14.20;99.90
37646;DHT22;23489;49.600;6.138;2024-03-25T08:36:38;14.50;99.90
37646;DHT22;23489;49.600;6.138;2024-03-25T08:39:05;13.40;99.90
37646;DHT22;23489;49.600;6.138;2024-03-25T08:41:30;13.00;99.90
37646;DHT22;23489;49.600;6.138;2024-03-25T08:43:56;14.30;99.90
37646;DHT22;23489;49.600;6.138;2024-03-25T08:46:22;16.20;99.90
37646;DHT22;23489;49.600;6.138;2024-03-25T08:48:47;16.10;99.90
37646;DHT22;23489;49.600;6.138;2024-03-25T08:51:13;16.20;99.90
37646;DHT22;23489;49.600;6.138;2024-03-25T08:53:38;16.00;99.90
37646;DHT22;23489;49.600;6.138;2024-03-25T08:56:04;16.80;99.90
37646;DHT22;23489;49.600;6.138;2024-03-25T08:58:30;18.90;97.60
37646;DHT22;23489;49.600;6.138;2024-03-25T09:00:56;19.40;96.40
37646;DHT22;23489;49.600;6.138;2024-03-25T09:03:21;20.80;94.80
37646;DHT22;23489;49.600;6.138;2024-03-25T09:05:47;19.10;92.80
37646;DHT22;23489;49.600;6.138;2024-03-25T09:08:13;18.30;94.10
37646;DHT22;23489;49.600;6.138;2024-03-25T09:10:39;18.00;94.50
37646;DHT22;23489;49.600;6.138;2024-03-25T09:13:23;18.60;93.40
37646;DHT22;23489;49.600;6.138;2024-03-25T09:15:49;18.90;93.90
37646;DHT22;23489;49.600;6.138;2024-03-25T09:18:15;19.80;92.20
37646;DHT22;23489;49.600;6.138;2024-03-25T09:20:40;18.50;93.50
37646;DHT22;23489;49.600;6.138;2024-03-25T09:23:06;18.50;93.40
37646;DHT22;23489;49.600;6.138;2024-03-25T09:25:33;18.90;92.80
37646;DHT22;23489;49.600;6.138;2024-03-25T09:27:58;19.00;92.80
37646;DHT22;23489;49.600;6.138;2024-03-25T09:30:24;18.50;92.70
37646;DHT22;23489;49.600;6.138;2024-03-25T09:32:50;17.10;94.20
37646;DHT22;23489;49.600;6.138;2024-03-25T09:35:15;17.50;94.60
37646;DHT22;23489;49.600;6.138;2024-03-25T09:37:41;17.70;94.00
37646;DHT22;23489;49.600;6.138;2024-03-25T09:40:08;17.60;93.80
37646;DHT22;23489;49.600;6.138;2024-03-25T09:42:47;18.00;93.90
37646;DHT22;23489;49.600;6.138;2024-03-25T09:45:16;19.00;93.50
37646;DHT22;23489;49.600;6.138;2024-03-25T09:47:45;19.80;92.30
37646;DHT22;23489;49.600;6.138;2024-03-25T09:50:15;20.20;90.80
37646;DHT22;23489;49.600;6.138;2024-03-25T09:52:50;20.80;90.20
37646;DHT22;23489;49.600;6.138;2024-03-25T09:55:16;19.70;90.40
37646;DHT22;23489;49.600;6.138;2024-03-25T09:57:42;19.40;91.00
37646;DHT22;23489;49.600;6.138;2024-03-25T10:00:10;18.80;91.60
37646;DHT22;23489;49.600;6.138;2024-03-25T10:02:40;19.30;92.00
37646;DHT22;23489;49.600;6.138;2024-03-25T10:05:06;20.40;89.90
37646;DHT22;23489;49.600;6.138;2024-03-25T10:07:33;20.50;88.60
37646;DHT22;23489;49.600;6.138;2024-03-25T10:09:59;19.20;90.30
37646;DHT22;23489;49.600;6.138;2024-03-25T10:12:25;19.70;89.70
37646;DHT22;23489;49.600;6.138;2024-03-25T10:14:51;20.00;87.80
37646;DHT22;23489;49.600;6.138;2024-03-25T10:17:17;19.10;88.20
37646;DHT22;23489;49.600;6.138;2024-03-25T10:19:42;18.10;90.30
37646;DHT22;23489;49.600;6.138;2024-03-25T10:22:09;18.30;90.30
37646;DHT22;23489;49.600;6.138;2024-03-25T10:24:44;18.20;90.00
37646;DHT22;23489;49.600;6.138;2024-03-25T10:27:11;18.20;90.60
37646;DHT22;23489;49.600;6.138;2024-03-25T10:29:42;18.30;90.60
37646;DHT22;23489;49.600;6.138;2024-03-25T10:32:08;17.70;89.50
37646;DHT22;23489;49.600;6.138;2024-03-25T10:34:33;16.20;90.50
37646;DHT22;23489;49.600;6.138;2024-03-25T10:36:59;16.10;90.90
37646;DHT22;23489;49.600;6.138;2024-03-25T10:39:27;15.60;91.70
37646;DHT22;23489;49.600;6.138;2024-03-25T10:41:56;15.90;91.30
37646;DHT22;23489;49.600;6.138;2024-03-25T10:44:22;17.60;90.50
37646;DHT22;23489;49.600;6.138;2024-03-25T10:46:49;19.50;85.40
37646;DHT22;23489;49.600;6.138;2024-03-25T10:49:23;20.30;82.60
37646;DHT22;23489;49.600;6.138;2024-03-25T10:51:50;21.20;79.50
37646;DHT22;23489;49.600;6.138;2024-03-25T10:54:16;22.70;74.60
37646;DHT22;23489;49.600;6.138;2024-03-25T10:56:43;22.20;73.70
37646;DHT22;23489;49.600;6.138;2024-03-25T10:59:11;22.50;69.80
37646;DHT22;23489;49.600;6.138;2024-03-25T11:01:37;22.40;69.10
37646;DHT22;23489;49.600;6.138;2024-03-25T11:04:03;20.80;70.80
37646;DHT22;23489;49.600;6.138;2024-03-25T11:06:33;19.80;68.30
37646;DHT22;23489;49.600;6.138;2024-03-25T11:08:59;18.40;67.30
37646;DHT22;23489;49.600;6.138;2024-03-25T11:11:34;16.10;71.80
37646;DHT22;23489;49.600;6.138;2024-03-25T11:14:03;15.00;76.50
37646;DHT22;23489;49.600;6.138;2024-03-25T11:16:30;14.20;81.30
37646;DHT22;23489;49.600;6.138;2024-03-25T11:19:00;13.60;80.20
37646;DHT22;23489;49.600;6.138;2024-03-25T11:21:25;12.80;81.90
37646;DHT22;23489;49.600;6.138;2024-03-25T11:23:51;12.90;84.80
37646;DHT22;23489;49.600;6.138;2024-03-25T11:26:26;13.10;85.70
37646;DHT22;23489;49.600;6.138;2024-03-25T11:28:56;13.10;87.00
37646;DHT22;23489;49.600;6.138;2024-03-25T11:31:21;13.10;85.30
37646;DHT22;23489;49.600;6.138;2024-03-25T11:33:49;13.00;86.40
37646;DHT22;23489;49.600;6.138;2024-03-25T11:36:15;12.60;85.90
37646;DHT22;23489;49.600;6.138;2024-03-25T11:38:41;12.30;85.90
37646;DHT22;23489;49.600;6.138;2024-03-25T11:41:10;12.10;87.30
37646;DHT22;23489;49.600;6.138;2024-03-25T11:43:36;11.80;88.50
37646;DHT22;23489;49.600;6.138;2024-03-25T11:46:02;11.70;88.30
37646;DHT22;23489;49.600;6.138;2024-03-25T11:48:32;11.60;89.00
37646;DHT22;23489;49.600;6.138;2024-03-25T11:50:58;11.70;89.10
37646;DHT22;23489;49.600;6.138;2024-03-25T11:53:26;12.10;88.10
37646;DHT22;23489;49.600;6.138;2024-03-25T11:55:53;12.50;86.80
37646;DHT22;23489;49.600;6.138;2024-03-25T11:58:19;12.90;82.70
37646;DHT22;23489;49.600;6.138;2024-03-25T12:00:46;13.10;82.80
37646;DHT22;23489;49.600;6.138;2024-03-25T12:03:15;13.10;82.60
37646;DHT22;23489;49.600;6.138;2024-03-25T12:05:41;13.40;82.20
37646;DHT22;23489;49.600;6.138;2024-03-25T12:08:09;13.70;80.40
37646;DHT22;23489;49.600;6.138;2024-03-25T12:10:36;13.40;80.80
37646;DHT22;23489;49.600;6.138;2024-03-25T12:13:23;12.80;82.00
37646;DHT22;23489;49.600;6.138;2024-03-25T12:15:53;12.00;84.30
37646;DHT22;23489;49.600;6.138;2024-03-25T12:18:20;11.30;85.40
37646;DHT22;23489;49.600;6.138;2024-03-25T12:20:45;11.00;86.10
37646;DHT22;23489;49.600;6.138;2024-03-25T12:23:11;10.70;88.20
37646;DHT22;23489;49.600;6.138;2024-03-25T12:25:37;10.50;88.90
37646;DHT22;23489;49.600;6.138;2024-03-25T12:28:10;10.40;89.10
37646;DHT22;23489;49.600;6.138;2024-03-25T12:30:50;10.40;89.30
37646;DHT22;23489;49.600;6.138;2024-03-25T12:33:17;10.40;89.80
37646;DHT22;23489;49.600;6.138;2024-03-25T12:35:46;10.20;90.00
37646;DHT22;23489;49.600;6.138;2024-03-25T12:38:22;10.30;90.30
37646;DHT22;23489;49.600;6.138;2024-03-25T12:40:48;10.30;90.00
37646;DHT22;23489;49.600;6.138;2024-03-25T12:43:17;10.30;89.40
37646;DHT22;23489;49.600;6.138;2024-03-25T12:45:43;10.40;89.30
37646;DHT22;23489;49.600;6.138;2024-03-25T12:48:09;10.60;89.90
37646;DHT22;23489;49.600;6.138;2024-03-25T12:50:36;10.70;87.50
37646;DHT22;23489;49.600;6.138;2024-03-25T12:53:02;10.90;87.60
37646;DHT22;23489;49.600;6.138;2024-03-25T12:55:29;11.10;86.90
37646;DHT22;23489;49.600;6.138;2024-03-25T12:57:55;11.20;86.80
37646;DHT22;23489;49.600;6.138;2024-03-25T13:00:21;11.20;86.80
37646;DHT22;23489;49.600;6.138;2024-03-25T13:02:47;11.00;85.90
37646;DHT22;23489;49.600;6.138;2024-03-25T13:05:13;10.90;86.40
37646;DHT22;23489;49.600;6.138;2024-03-25T13:07:38;10.80;86.90
37646;DHT22;23489;49.600;6.138;2024-03-25T13:10:04;10.70;87.00
37646;DHT22;23489;49.600;6.138;2024-03-25T13:12:31;10.60;88.80
37646;DHT22;23489;49.600;6.138;2024-03-25T13:14:56;10.70;89.30
37646;DHT22;23489;49.600;6.138;2024-03-25T13:17:24;10.80;87.80
37646;DHT22;23489;49.600;6.138;2024-03-25T13:19:50;10.90;87.90
37646;DHT22;23489;49.600;6.138;2024-03-25T13:22:16;10.90;87.20
37646;DHT22;23489;49.600;6.138;2024-03-25T13:24:42;10.90;87.30
37646;DHT22;23489;49.600;6.138;2024-03-25T13:27:07;10.80;87.70
37646;DHT22;23489;49.600;6.138;2024-03-25T13:29:34;11.00;88.80
37646;DHT22;23489;49.600;6.138;2024-03-25T13:32:02;11.40;88.00
37646;DHT22;23489;49.600;6.138;2024-03-25T13:34:28;11.60;88.20
37646;DHT22;23489;49.600;6.138;2024-03-25T13:36:54;11.70;86.10
37646;DHT22;23489;49.600;6.138;2024-03-25T13:39:20;11.80;86.20
37646;DHT22;23489;49.600;6.138;2024-03-25T13:41:45;11.90;85.80
37646;DHT22;23489;49.600;6.138;2024-03-25T13:44:11;12.00;85.60
37646;DHT22;23489;49.600;6.138;2024-03-25T13:46:37;11.90;85.40
37646;DHT22;23489;49.600;6.138;2024-03-25T13:49:03;11.90;83.90
37646;DHT22;23489;49.600;6.138;2024-03-25T13:51:28;12.00;84.70
37646;DHT22;23489;49.600;6.138;2024-03-25T13:53:54;12.00;84.30
37646;DHT22;23489;49.600;6.138;2024-03-25T13:56:20;12.10;81.80
37646;DHT22;23489;49.600;6.138;2024-03-25T13:58:45;12.10;81.80
37646;DHT22;23489;49.600;6.138;2024-03-25T14:01:11;12.40;82.70
37646;DHT22;23489;49.600;6.138;2024-03-25T14:03:37;12.40;83.00
37646;DHT22;23489;49.600;6.138;2024-03-25T14:06:03;12.50;85.20
37646;DHT22;23489;49.600;6.138;2024-03-25T14:08:28;12.40;85.70
37646;DHT22;23489;49.600;6.138;2024-03-25T14:10:58;12.20;86.80
37646;DHT22;23489;49.600;6.138;2024-03-25T14:13:25;11.70;87.60
37646;DHT22;23489;49.600;6.138;2024-03-25T14:15:51;11.30;87.80
37646;DHT22;23489;49.600;6.138;2024-03-25T14:18:16;11.20;89.10
37646;DHT22;23489;49.600;6.138;2024-03-25T14:20:42;11.10;89.60
37646;DHT22;23489;49.600;6.138;2024-03-25T14:23:08;11.10;89.80
37646;DHT22;23489;49.600;6.138;2024-03-25T14:25:34;11.10;90.00
37646;DHT22;23489;49.600;6.138;2024-03-25T14:28:00;11.10;90.10
37646;DHT22;23489;49.600;6.138;2024-03-25T14:30:25;11.00;90.10
37646;DHT22;23489;49.600;6.138;2024-03-25T14:32:51;10.80;89.80
37646;DHT22;23489;49.600;6.138;2024-03-25T14:35:17;10.80;89.70
37646;DHT22;23489;49.600;6.138;2024-03-25T14:37:43;10.80;90.00
37646;DHT22;23489;49.600;6.138;2024-03-25T14:40:09;10.90;90.30
37646;DHT22;23489;49.600;6.138;2024-03-25T14:42:34;11.00;90.00
37646;DHT22;23489;49.600;6.138;2024-03-25T14:45:00;11.00;89.60
37646;DHT22;23489;49.600;6.138;2024-03-25T14:47:26;11.20;90.10
37646;DHT22;23489;49.600;6.138;2024-03-25T14:49:51;11.30;89.80
37646;DHT22;23489;49.600;6.138;2024-03-25T14:52:17;11.30;88.90
37646;DHT22;23489;49.600;6.138;2024-03-25T14:54:43;11.40;88.90
37646;DHT22;23489;49.600;6.138;2024-03-25T14:57:08;11.40;88.50
37646;DHT22;23489;49.600;6.138;2024-03-25T14:59:34;11.30;89.00
37646;DHT22;23489;49.600;6.138;2024-03-25T15:02:00;11.20;90.00
37646;DHT22;23489;49.600;6.138;2024-03-25T15:04:29;11.20;90.10
37646;DHT22;23489;49.600;6.138;2024-03-25T15:06:56;11.30;90.20
37646;DHT22;23489;49.600;6.138;2024-03-25T15:09:22;11.20;89.70
37646;DHT22;23489;49.600;6.138;2024-03-25T15:11:48;11.00;89.50
37646;DHT22;23489;49.600;6.138;2024-03-25T15:14:14;10.90;90.20
37646;DHT22;23489;49.600;6.138;2024-03-25T15:16:39;10.80;90.20
37646;DHT22;23489;49.600;6.138;2024-03-25T15:19:05;10.70;90.20
37646;DHT22;23489;49.600;6.138;2024-03-25T15:21:31;10.70;90.30
37646;DHT22;23489;49.600;6.138;2024-03-25T15:23:57;10.60;90.30
37646;DHT22;23489;49.600;6.138;2024-03-25T15:26:23;10.60;90.20
37646;DHT22;23489;49.600;6.138;2024-03-25T15:28:49;10.60;90.30
37646;DHT22;23489;49.600;6.138;2024-03-25T15:31:14;10.60;89.60
37646;DHT22;23489;49.600;6.138;2024-03-25T15:33:41;10.70;89.40
37646;DHT22;23489;49.600;6.138;2024-03-25T15:36:07;10.70;89.40